Time;durP1;ratioP1;P1;durP2;ratioP2;P2;SDS_P1;SDS_P2;PMS_P1;PMS_P2;Temp;Humidity;BMP_temperature;BMP_pressure;BME280_temperature;BME280_humidity;BME280_pressure;Samples;Min_cycle;Max_cycle;Signal;HPM_P1;HPM_P2
2022/03/12 00:00:56;;;;;;;1.38;0.70;;;28.00;97.30;;;;;;4912767;29;20431;-75
2022/03/12 00:03:23;;;;;;;2.40;0.60;;;28.60;94.70;;;;;;4913424;29;20443;-75
2022/03/12 00:05:57;;;;;;;4.95;0.52;;;28.70;94.60;;;;;;4914258;29;20119;-75
2022/03/12 00:11:14;;;;;;;1.77;0.30;;;29.40;93.60;;;;;;4910012;29;20020;-75
2022/03/12 00:13:42;;;;;;;3.78;0.50;;;29.50;94.50;;;;;;4910436;29;20055;-75
2022/03/12 00:16:18;;;;;;;6.57;0.73;;;29.80;92.40;;;;;;4913212;29;20066;-75
2022/03/12 00:18:51;;;;;;;2.97;0.50;;;29.70;93.20;;;;;;4911787;29;20036;-74
2022/03/12 00:21:18;;;;;;;1.77;0.70;;;29.90;93.80;;;;;;4912517;29;20094;-74
2022/03/12 00:23:48;;;;;;;1.45;0.40;;;29.90;92.50;;;;;;4909969;29;20046;-75
2022/03/12 00:26:17;;;;;;;3.50;0.40;;;29.20;92.60;;;;;;4912039;29;20110;-75
2022/03/12 00:28:45;;;;;;;1.45;0.40;;;28.30;93.60;;;;;;4911875;29;20385;-74
2022/03/12 00:31:13;;;;;;;1.48;0.50;;;27.30;94.60;;;;;;4913173;29;20031;-75
2022/03/12 00:33:40;;;;;;;1.70;0.43;;;26.70;95.10;;;;;;4911746;29;20028;-74
2022/03/12 00:36:09;;;;;;;1.40;0.32;;;27.30;95.50;;;;;;4914174;29;20075;-74
2022/03/12 00:38:36;;;;;;;1.63;0.57;;;27.20;94.30;;;;;;4908167;29;20024;-75
2022/03/12 00:41:05;;;;;;;2.38;0.95;;;27.30;94.40;;;;;;4911665;29;20032;-74
2022/03/12 00:43:33;;;;;;;1.50;0.70;;;27.90;94.80;;;;;;4911223;29;20116;-75
2022/03/12 00:46:00;;;;;;;2.33;0.60;;;27.90;94.10;;;;;;4909614;29;20032;-74
2022/03/12 00:48:28;;;;;;;1.23;0.40;;;27.50;93.70;;;;;;4911382;29;20419;-74
2022/03/12 00:50:55;;;;;;;1.33;0.50;;;27.20;94.60;;;;;;4911303;29;20054;-74
2022/03/12 00:53:22;;;;;;;5.97;0.65;;;27.40;96.20;;;;;;4911850;29;20495;-74
2022/03/12 00:55:50;;;;;;;1.10;0.40;;;27.60;93.80;;;;;;4912394;29;20031;-74
2022/03/12 00:58:17;;;;;;;2.60;0.65;;;27.40;93.90;;;;;;4910975;29;20607;-75
2022/03/12 01:00:45;;;;;;;4.05;0.40;;;26.90;94.20;;;;;;4913464;29;20063;-73
2022/03/12 01:03:12;;;;;;;2.55;0.52;;;26.70;94.70;;;;;;4911507;29;20031;-74
2022/03/12 01:05:43;;;;;;;2.40;0.47;;;26.90;94.40;;;;;;4913059;29;20032;-75
2022/03/12 01:08:11;;;;;;;6.20;0.50;;;27.10;94.20;;;;;;4912243;29;20028;-76
2022/03/12 01:10:39;;;;;;;2.50;0.32;;;27.00;94.50;;;;;;4910108;29;20109;-75
2022/03/12 01:13:06;;;;;;;2.65;0.65;;;27.40;94.90;;;;;;4911656;29;20119;-74
2022/03/12 01:15:34;;;;;;;2.28;0.82;;;28.30;94.20;;;;;;4912558;29;20028;-74
2022/03/12 01:18:02;;;;;;;4.03;0.50;;;28.80;93.20;;;;;;4909954;29;20021;-74
2022/03/12 01:20:31;;;;;;;3.22;0.38;;;28.70;93.30;;;;;;4907787;29;20044;-75
2022/03/12 01:22:58;;;;;;;3.13;0.40;;;28.80;92.80;;;;;;4904255;29;20032;-75
2022/03/12 01:25:26;;;;;;;0.52;0.20;;;28.70;92.80;;;;;;4904504;29;20029;-75
2022/03/12 01:27:54;;;;;;;4.32;0.50;;;28.90;92.70;;;;;;4909174;29;20329;-77
2022/03/12 01:30:29;;;;;;;2.97;0.35;;;28.10;92.60;;;;;;4907418;29;20088;-76
2022/03/12 01:32:57;;;;;;;2.33;0.40;;;27.90;92.90;;;;;;4907149;29;20027;-73
2022/03/12 01:35:25;;;;;;;2.50;0.95;;;28.00;92.60;;;;;;4908647;29;20120;-73
2022/03/12 01:37:53;;;;;;;0.93;0.30;;;27.60;93.00;;;;;;4923985;29;20036;-74
2022/03/12 01:40:24;;;;;;;4.00;0.75;;;27.20;93.70;;;;;;4909369;29;20040;-74
2022/03/12 01:42:51;;;;;;;1.92;0.40;;;27.00;93.50;;;;;;4909891;29;20443;-74
2022/03/12 01:45:26;;;;;;;2.47;0.38;;;26.60;93.80;;;;;;4905527;29;20100;-75
2022/03/12 01:47:59;;;;;;;2.33;0.40;;;26.20;94.50;;;;;;4906038;29;20128;-74
2022/03/12 01:50:33;;;;;;;2.35;0.63;;;26.00;94.90;;;;;;4902811;29;20051;-76
2022/03/12 01:53:11;;;;;;;4.70;1.13;;;25.90;95.00;;;;;;4905276;29;20087;-75
2022/03/12 01:55:39;;;;;;;2.45;1.10;;;25.70;95.20;;;;;;4911329;29;20043;-76
2022/03/12 01:58:08;;;;;;;2.20;0.30;;;25.50;95.80;;;;;;4915360;29;20155;-76
2022/03/12 02:00:51;;;;;;;3.25;0.65;;;25.30;95.70;;;;;;4917858;29;20036;-75
2022/03/12 02:03:28;;;;;;;1.27;0.38;;;25.40;95.80;;;;;;4910129;29;20466;-75
2022/03/12 02:05:57;;;;;;;1.70;0.50;;;25.50;95.70;;;;;;4916227;29;20117;-74
2022/03/12 02:08:25;;;;;;;4.32;0.73;;;25.70;95.70;;;;;;4915779;29;20024;-76
2022/03/12 02:10:57;;;;;;;2.95;0.45;;;25.80;95.70;;;;;;4915584;29;20422;-75
2022/03/12 02:13:26;;;;;;;1.27;0.30;;;25.90;95.30;;;;;;4915113;29;20032;-73
2022/03/12 02:16:07;;;;;;;1.65;0.50;;;26.00;95.50;;;;;;4915005;29;20032;-73
2022/03/12 02:18:35;;;;;;;1.05;0.20;;;25.80;94.90;;;;;;4915389;29;20031;-73
2022/03/12 02:21:03;;;;;;;1.20;0.20;;;25.90;95.00;;;;;;4910323;29;20059;-75
2022/03/12 02:23:44;;;;;;;2.67;0.30;;;26.20;94.20;;;;;;4911247;29;20047;-75
2022/03/12 02:26:12;;;;;;;1.10;0.52;;;27.20;94.20;;;;;;4912080;29;20130;-73
2022/03/12 02:28:39;;;;;;;1.80;0.50;;;28.40;93.40;;;;;;4913759;29;20037;-74
2022/03/12 02:31:06;;;;;;;0.98;0.30;;;29.40;92.00;;;;;;4913740;29;20699;-74
2022/03/12 02:33:34;;;;;;;3.50;0.50;;;29.90;91.30;;;;;;4913549;29;20094;-73
2022/03/12 02:36:05;;;;;;;2.40;0.28;;;30.30;90.80;;;;;;4914530;29;20024;-78
2022/03/12 02:38:33;;;;;;;1.02;0.28;;;30.70;91.10;;;;;;4916064;29;20091;-75
2022/03/12 02:41:10;;;;;;;4.07;0.50;;;31.00;91.40;;;;;;4909601;29;20055;-76
2022/03/12 02:43:43;;;;;;;2.33;0.80;;;31.30;89.20;;;;;;4912003;29;20048;-76
2022/03/12 02:46:13;;;;;;;1.58;0.25;;;31.10;89.70;;;;;;4916403;29;20032;-76
2022/03/12 02:48:42;;;;;;;1.60;0.20;;;31.30;90.50;;;;;;4922596;29;20023;-76
2022/03/12 02:51:11;;;;;;;0.93;0.30;;;31.40;89.00;;;;;;4921833;29;20032;-74
2022/03/12 02:53:38;;;;;;;2.40;0.43;;;31.20;88.00;;;;;;4912151;29;20069;-74
2022/03/12 02:56:06;;;;;;;1.45;0.40;;;31.30;88.40;;;;;;4913877;29;20138;-74
2022/03/12 02:58:33;;;;;;;2.63;0.60;;;31.40;87.50;;;;;;4914285;29;20028;-73
2022/03/12 03:01:04;;;;;;;1.70;0.50;;;31.20;89.00;;;;;;4913583;29;20115;-73
2022/03/12 03:03:35;;;;;;;1.67;0.57;;;31.00;87.50;;;;;;4912653;29;20036;-74
2022/03/12 03:06:03;;;;;;;2.28;0.47;;;31.20;86.60;;;;;;4915537;29;20039;-73
2022/03/12 03:08:30;;;;;;;3.78;0.40;;;31.30;85.20;;;;;;4914955;29;20025;-75
2022/03/12 03:10:59;;;;;;;1.77;0.40;;;30.80;84.30;;;;;;4915353;29;20386;-73
2022/03/12 03:13:29;;;;;;;1.40;0.40;;;30.00;84.50;;;;;;4913706;29;20309;-74
2022/03/12 03:16:07;;;;;;;1.35;0.55;;;29.50;85.60;;;;;;4913396;29;20467;-74
2022/03/12 03:18:38;;;;;;;3.35;0.40;;;28.90;86.70;;;;;;4913935;29;20044;-74
2022/03/12 03:21:13;;;;;;;2.33;0.52;;;28.50;89.00;;;;;;4914053;29;20063;-73
2022/03/12 03:23:47;;;;;;;0.93;0.30;;;27.80;90.00;;;;;;4910255;29;20101;-72
2022/03/12 03:26:40;;;;;;;2.53;0.50;;;27.50;90.70;;;;;;4911375;29;20036;-74
2022/03/12 03:29:08;;;;;;;1.63;0.30;;;27.50;91.20;;;;;;4911722;29;20048;-73
2022/03/12 03:31:36;;;;;;;3.97;0.40;;;28.00;90.50;;;;;;4925680;29;20040;-73
2022/03/12 03:34:04;;;;;;;2.17;0.68;;;28.80;90.10;;;;;;4910458;29;20039;-73
2022/03/12 03:36:31;;;;;;;1.45;0.30;;;29.50;89.60;;;;;;4924134;29;20031;-73
2022/03/12 03:38:59;;;;;;;2.05;0.68;;;30.00;90.00;;;;;;4914426;29;20024;-74
2022/03/12 03:41:26;;;;;;;5.05;0.40;;;29.90;89.60;;;;;;4913185;29;20048;-74
2022/03/12 03:43:53;;;;;;;2.63;0.38;;;29.50;90.10;;;;;;4915151;29;20096;-74
2022/03/12 03:46:23;;;;;;;7.13;0.73;;;29.60;91.10;;;;;;4914645;29;20032;-73
2022/03/12 03:48:52;;;;;;;0.32;0.10;;;29.20;90.30;;;;;;4913464;29;20095;-73
2022/03/12 03:51:21;;;;;;;1.10;0.20;;;28.50;90.60;;;;;;4913405;29;20032;-74
2022/03/12 03:53:50;;;;;;;0.82;0.28;;;28.00;91.00;;;;;;4911673;29;20142;-74
2022/03/12 03:56:18;;;;;;;5.00;0.68;;;27.60;91.50;;;;;;4917512;29;20111;-75
2022/03/12 03:58:46;;;;;;;2.05;0.25;;;27.40;91.80;;;;;;4913267;29;20036;-74
2022/03/12 04:01:20;;;;;;;0.82;0.20;;;27.10;91.90;;;;;;4914167;29;20028;-76
2022/03/12 04:03:51;;;;;;;1.13;0.65;;;27.00;92.00;;;;;;4908672;29;20126;-73
2022/03/12 04:06:21;;;;;;;4.13;0.60;;;27.00;92.10;;;;;;4913262;29;20131;-75
2022/03/12 04:08:50;;;;;;;3.03;0.65;;;27.30;92.00;;;;;;4925605;29;20027;-75
2022/03/12 04:11:22;;;;;;;2.45;0.20;;;27.60;91.60;;;;;;4916557;29;20032;-75
2022/03/12 04:13:52;;;;;;;2.03;0.20;;;27.60;91.60;;;;;;4907287;29;20127;-73
2022/03/12 04:16:21;;;;;;;2.45;0.45;;;27.50;91.80;;;;;;4906868;29;20028;-77
2022/03/12 04:18:49;;;;;;;1.30;0.45;;;27.60;91.80;;;;;;4902698;29;20036;-72
2022/03/12 04:21:18;;;;;;;1.58;0.45;;;27.50;91.70;;;;;;4907772;29;20035;-75
2022/03/12 04:23:46;;;;;;;0.73;0.30;;;27.30;91.90;;;;;;4907548;29;20067;-74
2022/03/12 04:26:14;;;;;;;5.60;0.50;;;27.60;91.80;;;;;;4911238;29;20036;-75
2022/03/12 04:28:41;;;;;;;5.85;0.40;;;28.40;91.50;;;;;;4913195;29;20124;-74
2022/03/12 04:31:09;;;;;;;0.30;0.13;;;28.80;91.00;;;;;;4911158;29;20016;-75
2022/03/12 04:33:39;;;;;;;2.05;0.30;;;29.10;90.60;;;;;;4910088;29;20043;-76
2022/03/12 04:36:09;;;;;;;0.65;0.17;;;29.20;90.60;;;;;;4913046;29;20032;-73
2022/03/12 04:38:37;;;;;;;1.48;0.20;;;29.40;90.20;;;;;;4911380;29;20077;-72
2022/03/12 04:41:05;;;;;;;3.35;0.45;;;29.50;90.40;;;;;;4910774;29;20115;-73
2022/03/12 04:43:33;;;;;;;1.67;0.63;;;29.50;90.00;;;;;;4911964;29;21332;-73
2022/03/12 04:46:02;;;;;;;4.07;0.60;;;29.40;89.50;;;;;;4924260;29;20321;-74
2022/03/12 04:48:30;;;;;;;1.85;0.85;;;29.20;90.60;;;;;;4912173;29;20028;-74
2022/03/12 04:50:58;;;;;;;2.05;0.20;;;29.10;91.00;;;;;;4911197;29;20479;-74
2022/03/12 04:53:26;;;;;;;1.60;0.20;;;28.90;90.80;;;;;;4904923;29;20123;-74
2022/03/12 04:55:54;;;;;;;2.47;0.32;;;28.90;90.40;;;;;;4907770;29;20107;-75
2022/03/12 04:58:22;;;;;;;1.83;0.50;;;28.70;90.60;;;;;;4906128;29;20507;-74
2022/03/12 05:00:50;;;;;;;5.25;0.43;;;28.20;90.60;;;;;;4906609;29;20107;-73
2022/03/12 05:03:21;;;;;;;1.10;0.50;;;27.80;90.50;;;;;;4908744;29;20063;-78
2022/03/12 05:05:51;;;;;;;1.63;0.20;;;27.80;91.30;;;;;;4909887;29;20040;-73
2022/03/12 05:08:35;;;;;;;1.92;0.20;;;27.90;90.30;;;;;;4899758;29;20058;-74
2022/03/12 05:11:02;;;;;;;1.00;0.20;;;28.10;90.90;;;;;;4916122;29;20076;-74
2022/03/12 05:13:30;;;;;;;1.27;0.20;;;28.40;90.80;;;;;;4909940;29;20024;-74
2022/03/12 05:16:05;;;;;;;4.55;0.50;;;28.60;89.80;;;;;;4906785;29;20107;-73
2022/03/12 05:18:34;;;;;;;0.70;0.20;;;28.50;89.90;;;;;;4910813;29;20495;-74
2022/03/12 05:21:02;;;;;;;2.40;0.20;;;28.20;90.40;;;;;;4911538;29;20059;-74
2022/03/12 05:23:29;;;;;;;1.35;0.25;;;28.10;90.30;;;;;;4912483;29;20067;-75
2022/03/12 05:25:57;;;;;;;1.60;0.25;;;28.20;90.60;;;;;;4909131;29;20028;-74
2022/03/12 05:28:29;;;;;;;1.80;0.40;;;28.30;90.30;;;;;;4910279;29;20036;-76
2022/03/12 05:30:58;;;;;;;0.25;0.10;;;28.20;89.90;;;;;;4912781;29;20020;-74
2022/03/12 05:36:42;;;;;;;1.95;0.30;;;28.50;90.30;;;;;;5828617;23;20094;-73
2022/03/12 05:42:34;;;;;;;0.90;0.30;;;28.30;90.40;;;;;;4928308;29;20099;-72
2022/03/12 05:51:43;;;;;;;2.03;0.55;;;27.90;90.70;;;;;;4343669;23;20063;-73
2022/03/12 05:54:11;;;;;;;1.05;0.35;;;27.50;91.30;;;;;;4909214;29;20031;-73
2022/03/12 05:56:40;;;;;;;8.52;0.50;;;27.30;91.40;;;;;;4909840;29;20076;-74
2022/03/12 05:59:08;;;;;;;2.22;0.70;;;27.10;91.40;;;;;;4908962;29;20072;-72
2022/03/12 06:01:36;;;;;;;1.02;0.20;;;26.90;91.60;;;;;;4923628;23;20064;-74
2022/03/12 06:04:03;;;;;;;0.82;0.17;;;26.50;91.90;;;;;;4922508;29;20406;-74
2022/03/12 06:06:35;;;;;;;5.32;0.77;;;26.20;92.30;;;;;;4935217;29;20394;-73
2022/03/12 06:09:07;;;;;;;2.67;0.20;;;25.80;92.60;;;;;;4938918;29;20031;-73
2022/03/12 06:11:35;;;;;;;0.80;0.20;;;25.60;92.90;;;;;;4936704;29;20035;-73
2022/03/12 06:14:03;;;;;;;1.98;0.95;;;25.70;93.00;;;;;;4936099;29;20020;-74
2022/03/12 06:16:31;;;;;;;4.07;0.38;;;25.50;93.30;;;;;;4934018;29;20589;-74
2022/03/12 06:18:59;;;;;;;1.77;0.25;;;25.50;93.40;;;;;;4934922;29;20038;-74
2022/03/12 06:21:28;;;;;;;1.70;0.73;;;25.30;93.50;;;;;;4933262;29;20035;-74
2022/03/12 06:23:56;;;;;;;5.22;1.05;;;25.50;93.50;;;;;;4933691;29;20039;-72
2022/03/12 06:26:25;;;;;;;0.95;0.30;;;25.70;93.40;;;;;;4933170;29;20032;-74
2022/03/12 06:28:53;;;;;;;8.18;0.50;;;25.70;93.40;;;;;;4934671;29;20035;-74
2022/03/12 06:31:20;;;;;;;2.50;0.40;;;25.80;93.30;;;;;;4935208;28;20096;-74
2022/03/12 06:33:49;;;;;;;4.30;0.38;;;25.80;93.40;;;;;;4931431;29;20030;-74
2022/03/12 06:36:16;;;;;;;2.78;0.30;;;25.80;93.60;;;;;;4931861;29;20133;-74
2022/03/12 06:38:44;;;;;;;1.30;0.20;;;25.70;93.40;;;;;;4931131;29;20127;-73
2022/03/12 06:41:11;;;;;;;2.72;0.20;;;25.50;93.50;;;;;;4929437;29;20114;-72
2022/03/12 06:43:42;;;;;;;3.55;0.55;;;25.30;93.60;;;;;;4931808;29;20032;-73
2022/03/12 06:46:15;;;;;;;1.05;0.57;;;25.20;93.90;;;;;;4931676;29;20035;-74
2022/03/12 06:48:43;;;;;;;1.98;0.20;;;25.20;93.80;;;;;;4932869;29;20619;-72
2022/03/12 06:51:11;;;;;;;2.42;0.30;;;25.20;93.90;;;;;;4933287;29;20039;-72
2022/03/12 06:53:39;;;;;;;4.35;0.38;;;25.30;93.60;;;;;;4933047;29;20043;-72
2022/03/12 06:56:07;;;;;;;1.27;0.22;;;25.40;93.40;;;;;;4933840;29;20034;-72
2022/03/12 06:58:35;;;;;;;1.02;0.80;;;25.40;93.50;;;;;;4934644;29;20035;-75
2022/03/12 07:01:03;;;;;;;1.10;0.10;;;25.60;93.50;;;;;;4935347;29;20122;-73
2022/03/12 07:03:30;;;;;;;4.35;0.38;;;25.60;93.30;;;;;;4930599;29;20044;-71
2022/03/12 07:05:58;;;;;;;2.92;0.30;;;25.30;93.60;;;;;;4933802;29;20038;-72
2022/03/12 07:08:25;;;;;;;4.57;0.45;;;25.20;93.90;;;;;;4932192;29;20024;-72
2022/03/12 07:10:54;;;;;;;7.10;1.02;;;24.90;94.20;;;;;;4929620;29;20028;-75
2022/03/12 07:13:21;;;;;;;4.20;0.30;;;24.80;94.80;;;;;;4930884;29;20035;-75
2022/03/12 07:15:49;;;;;;;2.60;0.55;;;24.70;94.80;;;;;;4933173;29;20068;-75
2022/03/12 07:18:17;;;;;;;0.20;0.10;;;24.60;94.90;;;;;;4933337;29;20020;-76
2022/03/12 07:20:44;;;;;;;2.72;0.30;;;24.50;94.80;;;;;;4926557;29;20378;-73
2022/03/12 07:23:12;;;;;;;1.55;0.10;;;24.40;94.80;;;;;;4932186;29;20505;-75
2022/03/12 07:25:40;;;;;;;4.07;0.22;;;24.30;94.90;;;;;;4933397;29;20036;-76
2022/03/12 07:28:10;;;;;;;1.73;0.20;;;24.20;95.10;;;;;;4924419;29;20031;-74
2022/03/12 07:30:38;;;;;;;2.15;0.38;;;24.20;95.30;;;;;;4934190;29;20035;-74
2022/03/12 07:33:05;;;;;;;5.88;0.60;;;24.10;95.50;;;;;;4929094;29;20517;-73
2022/03/12 07:35:32;;;;;;;2.97;0.73;;;24.00;95.50;;;;;;4933859;29;20023;-74
2022/03/12 07:38:00;;;;;;;5.57;0.35;;;23.80;95.60;;;;;;4932850;28;20504;-73
2022/03/12 07:40:27;;;;;;;2.90;0.52;;;23.60;95.60;;;;;;4932388;29;20028;-73
2022/03/12 07:42:56;;;;;;;2.45;0.60;;;23.50;95.80;;;;;;4920936;29;20104;-75
2022/03/12 07:45:24;;;;;;;5.15;0.32;;;23.40;95.90;;;;;;4933000;29;20046;-74
2022/03/12 07:47:52;;;;;;;4.15;0.93;;;23.30;95.80;;;;;;4930975;29;20027;-75
2022/03/12 07:50:19;;;;;;;2.47;0.20;;;23.20;95.90;;;;;;4932223;29;20036;-75
2022/03/12 07:52:47;;;;;;;3.15;0.38;;;23.20;96.00;;;;;;4929960;29;20082;-75
2022/03/12 07:55:16;;;;;;;2.38;1.13;;;23.10;96.10;;;;;;4932605;29;20020;-74
2022/03/12 07:57:43;;;;;;;1.25;0.28;;;23.10;96.20;;;;;;4927899;29;20476;-74
2022/03/12 08:00:13;;;;;;;4.70;0.40;;;23.00;96.30;;;;;;4933437;29;20035;-74
2022/03/12 08:02:45;;;;;;;2.45;0.57;;;23.00;96.40;;;;;;4930110;29;20052;-74
2022/03/12 08:05:21;;;;;;;3.20;0.50;;;22.90;96.50;;;;;;4933214;29;20046;-72
2022/03/12 08:07:49;;;;;;;1.92;0.65;;;22.90;96.50;;;;;;4931508;29;20035;-72
2022/03/12 08:10:16;;;;;;;0.85;0.38;;;22.90;96.50;;;;;;4932884;28;20034;-72
2022/03/12 08:12:46;;;;;;;0.57;0.10;;;22.70;96.60;;;;;;4932413;29;20020;-74
2022/03/12 08:15:15;;;;;;;5.13;0.15;;;22.60;96.60;;;;;;4932442;29;20019;-76
2022/03/12 08:17:43;;;;;;;2.72;0.35;;;22.60;96.80;;;;;;4930516;29;20031;-74
2022/03/12 08:20:11;;;;;;;2.47;0.63;;;22.50;96.70;;;;;;4932526;29;20418;-73
2022/03/12 08:22:41;;;;;;;5.93;1.25;;;22.50;97.00;;;;;;4931421;29;20078;-75
2022/03/12 08:25:10;;;;;;;2.03;0.30;;;22.40;97.00;;;;;;4930357;29;20036;-74
2022/03/12 08:27:38;;;;;;;3.42;0.20;;;22.40;97.00;;;;;;4929731;29;20027;-73
2022/03/12 08:30:08;;;;;;;4.35;0.60;;;22.30;97.20;;;;;;4931945;29;20030;-73
2022/03/12 08:32:36;;;;;;;1.95;0.20;;;22.30;97.30;;;;;;4930943;29;20465;-75
2022/03/12 08:35:05;;;;;;;2.22;0.40;;;22.20;97.10;;;;;;4931717;29;20057;-74
2022/03/12 08:37:34;;;;;;;2.70;0.68;;;22.10;97.30;;;;;;4930159;28;20114;-74
2022/03/12 08:40:06;;;;;;;4.65;0.45;;;22.00;97.40;;;;;;4932435;29;20067;-74
2022/03/12 08:42:34;;;;;;;1.42;0.38;;;22.00;97.50;;;;;;4933061;29;20107;-74
2022/03/12 08:45:02;;;;;;;1.60;0.40;;;21.90;97.60;;;;;;4932203;29;20052;-75
2022/03/12 08:47:29;;;;;;;1.27;0.55;;;21.90;97.80;;;;;;4930324;29;20031;-75
2022/03/12 08:49:57;;;;;;;3.92;0.40;;;21.80;97.80;;;;;;4930260;28;20044;-74
2022/03/12 08:52:25;;;;;;;0.55;0.30;;;21.80;97.80;;;;;;4929393;29;20032;-73
2022/03/12 08:54:52;;;;;;;5.32;0.55;;;21.80;97.80;;;;;;4930811;29;20385;-76
2022/03/12 08:57:20;;;;;;;1.45;0.22;;;21.80;97.70;;;;;;4930393;29;20051;-73
2022/03/12 08:59:47;;;;;;;3.22;0.32;;;21.90;97.80;;;;;;4925781;29;20028;-76
2022/03/12 09:02:14;;;;;;;1.20;0.20;;;21.90;97.60;;;;;;4931768;29;20494;-76
2022/03/12 09:04:42;;;;;;;1.13;0.55;;;21.80;97.60;;;;;;4933789;29;20054;-75
2022/03/12 09:07:09;;;;;;;3.75;0.50;;;21.80;97.70;;;;;;4935669;29;20409;-74
2022/03/12 09:09:37;;;;;;;2.55;0.85;;;21.80;97.80;;;;;;4937081;29;20040;-74
2022/03/12 09:12:05;;;;;;;2.30;0.50;;;21.80;97.90;;;;;;4933713;29;20103;-74
2022/03/12 09:14:35;;;;;;;10.88;1.45;;;21.70;98.00;;;;;;4934447;29;20028;-74
2022/03/12 09:17:04;;;;;;;1.85;0.20;;;21.80;97.90;;;;;;4934185;28;20027;-74
2022/03/12 09:19:32;;;;;;;3.33;1.00;;;21.80;98.00;;;;;;4936224;28;20393;-74
2022/03/12 09:22:02;;;;;;;3.72;0.57;;;21.80;98.20;;;;;;4935467;29;20031;-75
2022/03/12 09:24:30;;;;;;;1.38;0.35;;;21.80;98.20;;;;;;4934787;29;20122;-76
2022/03/12 09:26:57;;;;;;;2.88;0.50;;;21.70;98.20;;;;;;4935003;28;20631;-74
2022/03/12 09:29:24;;;;;;;1.92;0.68;;;21.70;98.30;;;;;;4932694;29;20028;-74
2022/03/12 09:31:52;;;;;;;2.45;0.63;;;21.70;98.20;;;;;;4935295;28;20032;-75
2022/03/12 09:34:19;;;;;;;4.13;0.40;;;21.70;98.00;;;;;;4933905;29;20506;-74
2022/03/12 09:36:46;;;;;;;1.75;0.47;;;21.70;98.20;;;;;;4934470;29;20046;-75
2022/03/12 09:39:14;;;;;;;4.03;0.63;;;21.70;98.00;;;;;;4935267;29;20514;-73
2022/03/12 09:41:41;;;;;;;4.22;0.43;;;21.70;98.00;;;;;;4936337;29;20103;-74
2022/03/12 09:44:09;;;;;;;1.50;0.52;;;21.70;98.00;;;;;;4935102;29;20040;-74
2022/03/12 09:46:37;;;;;;;1.38;0.30;;;21.60;98.00;;;;;;4933723;28;20112;-74
2022/03/12 09:49:05;;;;;;;2.65;0.30;;;21.60;98.00;;;;;;4934279;29;20497;-76
2022/03/12 09:51:32;;;;;;;1.75;0.30;;;21.50;98.20;;;;;;4935085;29;20031;-74
2022/03/12 09:54:00;;;;;;;1.50;0.35;;;21.40;98.30;;;;;;4935812;29;20385;-73
2022/03/12 09:56:27;;;;;;;0.90;0.22;;;21.30;98.60;;;;;;4934925;29;20031;-75
2022/03/12 09:58:55;;;;;;;5.00;0.80;;;21.20;98.20;;;;;;4935120;29;20034;-74
2022/03/12 10:01:22;;;;;;;2.03;0.35;;;21.20;98.50;;;;;;4934963;29;20047;-74
2022/03/12 10:03:50;;;;;;;1.67;0.35;;;21.10;98.80;;;;;;4934067;29;20040;-75
2022/03/12 10:06:17;;;;;;;2.00;0.30;;;21.10;98.90;;;;;;4926295;29;20035;-74
2022/03/12 10:08:46;;;;;;;1.80;0.30;;;21.00;99.20;;;;;;4933126;29;20038;-74
2022/03/12 10:11:13;;;;;;;1.15;0.60;;;20.90;99.70;;;;;;4934450;29;20055;-74
2022/03/12 10:13:41;;;;;;;0.85;0.40;;;20.90;99.90;;;;;;4935113;29;20039;-73
2022/03/12 10:16:09;;;;;;;2.03;0.80;;;20.80;99.90;;;;;;4931511;29;20360;-73
2022/03/12 10:18:37;;;;;;;6.53;2.15;;;20.80;99.90;;;;;;4928826;29;20379;-73
2022/03/12 10:21:04;;;;;;;17.85;9.50;;;20.70;99.90;;;;;;4935167;29;20611;-73
2022/03/12 10:23:33;;;;;;;25.42;12.63;;;20.70;99.90;;;;;;4932473;29;20134;-74
2022/03/12 10:26:00;;;;;;;24.25;12.00;;;20.60;99.90;;;;;;4933879;29;20024;-75
2022/03/12 10:28:29;;;;;;;19.83;9.18;;;20.60;99.90;;;;;;4935059;28;20525;-76
2022/03/12 10:30:57;;;;;;;10.85;6.07;;;20.50;99.90;;;;;;4933530;29;20365;-75
2022/03/12 10:33:25;;;;;;;7.45;4.60;;;20.50;99.90;;;;;;4931634;29;20509;-75
2022/03/12 10:35:53;;;;;;;5.88;3.70;;;20.40;99.90;;;;;;4932862;29;20043;-76
2022/03/12 10:38:22;;;;;;;5.47;2.47;;;20.30;99.90;;;;;;4948862;28;20036;-73
2022/03/12 10:40:49;;;;;;;3.05;1.23;;;20.30;99.90;;;;;;4934153;28;20434;-75
2022/03/12 10:43:17;;;;;;;4.72;1.08;;;20.20;99.90;;;;;;4932403;29;20024;-74
2022/03/12 10:45:53;;;;;;;2.70;0.57;;;20.10;99.90;;;;;;4934527;28;20043;-73
2022/03/12 10:48:21;;;;;;;3.83;0.95;;;20.10;99.90;;;;;;4933616;29;20039;-74
2022/03/12 10:50:51;;;;;;;1.40;0.60;;;20.00;99.90;;;;;;4935120;29;20521;-74
2022/03/12 10:53:19;;;;;;;1.50;0.68;;;19.90;99.90;;;;;;4932012;29;20430;-75
2022/03/12 10:55:48;;;;;;;1.25;0.68;;;19.90;99.90;;;;;;4930659;29;20047;-73
2022/03/12 10:58:23;;;;;;;3.33;0.93;;;19.80;99.90;;;;;;4927486;29;20031;-74
2022/03/12 11:00:52;;;;;;;2.90;0.50;;;19.70;99.90;;;;;;4935089;29;20032;-75
2022/03/12 11:03:25;;;;;;;2.40;0.93;;;19.70;99.90;;;;;;4927087;29;20147;-74
2022/03/12 11:05:56;;;;;;;1.08;0.55;;;19.60;99.90;;;;;;4928036;29;20115;-74
2022/03/12 11:08:35;;;;;;;2.15;1.05;;;19.50;99.90;;;;;;4930241;29;20071;-73
2022/03/12 11:11:13;;;;;;;1.67;0.68;;;19.50;99.90;;;;;;4927648;29;20118;-74
2022/03/12 11:13:48;;;;;;;1.65;0.68;;;19.40;99.90;;;;;;4928370;29;20038;-73
2022/03/12 11:16:25;;;;;;;3.10;0.68;;;19.30;99.90;;;;;;4927871;29;20024;-74
2022/03/12 11:18:52;;;;;;;1.30;0.75;;;19.20;99.90;;;;;;4929076;28;20108;-75
2022/03/12 11:21:40;;;;;;;2.22;0.70;;;19.20;99.90;;;;;;4927078;29;20031;-74
2022/03/12 11:24:22;;;;;;;3.80;0.95;;;19.10;99.90;;;;;;4927105;29;20483;-74
2022/03/12 11:26:59;;;;;;;2.42;1.00;;;19.10;99.90;;;;;;4925597;29;20110;-74
2022/03/12 11:29:29;;;;;;;1.98;0.50;;;19.00;99.90;;;;;;4928339;29;20093;-74
2022/03/12 11:32:04;;;;;;;2.20;0.63;;;18.90;99.90;;;;;;4932378;29;20406;-73
2022/03/12 11:34:42;;;;;;;2.10;0.90;;;18.90;99.90;;;;;;4931310;29;20513;-75
2022/03/12 11:37:20;;;;;;;3.78;1.20;;;18.90;99.90;;;;;;4926540;29;21945;-74
2022/03/12 11:39:52;;;;;;;1.08;0.63;;;18.80;99.90;;;;;;4927972;29;20720;-76
2022/03/12 11:42:33;;;;;;;4.68;2.55;;;18.80;99.90;;;;;;4931689;29;20054;-74
2022/03/12 11:45:08;;;;;;;6.55;3.53;;;18.70;99.90;;;;;;4931706;29;20044;-75
2022/03/12 11:47:38;;;;;;;11.68;4.50;;;18.70;99.90;;;;;;4930473;29;20493;-75
2022/03/12 11:50:15;;;;;;;5.72;3.53;;;18.70;99.90;;;;;;4932527;29;20063;-75
2022/03/12 11:52:47;;;;;;;5.88;3.08;;;18.60;99.90;;;;;;4929336;29;20475;-75
2022/03/12 11:55:27;;;;;;;5.68;2.97;;;18.60;99.90;;;;;;4926485;29;20035;-76
2022/03/12 11:58:01;;;;;;;7.97;4.55;;;18.60;99.90;;;;;;4927648;29;20529;-74
2022/03/12 12:00:30;;;;;;;12.18;4.88;;;18.60;99.90;;;;;;4930720;28;20094;-75
2022/03/12 12:02:58;;;;;;;9.02;5.13;;;18.60;99.90;;;;;;4929058;29;20111;-75
2022/03/12 12:05:30;;;;;;;18.23;7.28;;;18.60;99.90;;;;;;4931290;29;20106;-75
2022/03/12 12:07:58;;;;;;;10.68;6.05;;;18.60;99.90;;;;;;4925491;29;20015;-75
2022/03/12 12:10:31;;;;;;;11.02;6.53;;;18.60;99.90;;;;;;4931722;29;20062;-75
2022/03/12 12:12:59;;;;;;;11.15;7.18;;;18.60;99.90;;;;;;4932597;29;20035;-75
2022/03/12 12:15:45;;;;;;;12.35;7.13;;;18.50;99.90;;;;;;4930729;29;20042;-74
2022/03/12 12:18:13;;;;;;;11.00;6.47;;;18.50;99.90;;;;;;4925009;29;20082;-75
2022/03/12 12:20:43;;;;;;;11.80;6.45;;;18.40;99.90;;;;;;4926950;29;20689;-74
2022/03/12 12:23:20;;;;;;;11.90;6.53;;;18.40;99.90;;;;;;4932041;29;20019;-73
2022/03/12 12:25:49;;;;;;;10.60;6.53;;;18.40;99.90;;;;;;4928568;29;20044;-74
2022/03/12 12:28:19;;;;;;;11.40;6.47;;;18.40;99.90;;;;;;4925977;29;20023;-76
2022/03/12 12:30:48;;;;;;;10.35;6.15;;;18.40;99.90;;;;;;4926048;29;20134;-74
2022/03/12 12:33:22;;;;;;;8.13;5.50;;;18.40;99.90;;;;;;4925497;29;20494;-75
2022/03/12 12:36:09;;;;;;;9.23;5.13;;;18.40;99.90;;;;;;4930836;29;20127;-76
2022/03/12 12:38:39;;;;;;;8.48;5.22;;;18.40;99.90;;;;;;4932834;29;20032;-73
2022/03/12 12:41:07;;;;;;;9.88;5.72;;;18.40;99.90;;;;;;4932523;29;20028;-74
2022/03/12 12:43:42;;;;;;;10.23;6.90;;;18.40;99.90;;;;;;4930587;29;20040;-76
2022/03/12 12:46:17;;;;;;;10.00;5.20;;;18.40;99.90;;;;;;4934916;29;20114;-71
2022/03/12 12:48:48;;;;;;;;;;;18.40;99.90;;;;;;4939742;29;20032;-72
2022/03/12 12:51:23;;;;;;;9.75;5.35;;;18.40;99.90;;;;;;4933566;28;19914;-74
2022/03/12 12:54:02;;;;;;;10.75;5.60;;;18.40;99.90;;;;;;4930813;29;20506;-76
2022/03/12 12:56:35;;;;;;;8.50;5.95;;;18.40;99.90;;;;;;4932614;29;20122;-75
2022/03/12 12:59:02;;;;;;;9.15;5.63;;;18.40;99.90;;;;;;4930158;28;20415;-75
2022/03/12 13:01:37;;;;;;;9.88;6.18;;;18.40;99.90;;;;;;4936796;29;20027;-75
2022/03/12 13:04:06;;;;;;;8.45;5.13;;;18.30;99.90;;;;;;4930715;29;20051;-75
2022/03/12 13:06:39;;;;;;;7.28;4.07;;;18.30;99.90;;;;;;4933138;29;20031;-74
2022/03/12 13:09:12;;;;;;;10.95;4.72;;;18.20;99.90;;;;;;4938228;29;20030;-74
2022/03/12 13:11:49;;;;;;;6.78;3.25;;;18.20;99.90;;;;;;4914760;29;20032;-74
2022/03/12 13:14:22;;;;;;;6.32;3.88;;;18.10;99.90;;;;;;4930149;29;20481;-74